Time;durP1;ratioP1;P1;durP2;ratioP2;P2;SDS_P1;SDS_P2;PMS_P1;PMS_P2;Temp;Humidity;BMP_temperature;BMP_pressure;BME280_temperature;BME280_humidity;BME280_pressure;Samples;Min_cycle;Max_cycle;Signal;HPM_P1;HPM_P2
2022/01/22 00:01:29;;;;;;;4.72;4.07;;;;;;;-146.19;100.00;58918.88;4963484;28;20088;-56
2022/01/22 00:03:58;;;;;;;6.72;5.55;;;;;;;-146.19;100.00;58918.88;4967653;28;20078;-49
2022/01/22 00:06:27;;;;;;;6.60;4.63;;;;;;;-146.19;100.00;58918.88;4963758;28;20077;-49
2022/01/22 00:08:56;;;;;;;5.30;4.72;;;;;;;-146.19;100.00;58918.88;4966181;28;20081;-45
2022/01/22 00:11:29;;;;;;;5.40;4.90;;;;;;;-146.19;100.00;58918.88;4972317;28;20101;-51
2022/01/22 00:16:43;;;;;;;4.95;4.55;;;;;;;-146.19;100.00;58918.88;4965488;28;20102;-45
2022/01/22 00:19:12;;;;;;;7.68;4.45;;;;;;;-146.19;100.00;58918.88;4966174;28;20078;-51
2022/01/22 00:21:40;;;;;;;4.93;4.50;;;;;;;-146.19;100.00;58918.88;4984352;28;20077;-48
2022/01/22 00:24:12;;;;;;;6.32;4.53;;;;;;;-146.19;100.00;58918.88;4968825;28;20477;-51
2022/01/22 00:26:41;;;;;;;7.05;4.57;;;;;;;-146.19;100.00;58918.88;4967411;28;20588;-50
2022/01/22 00:29:10;;;;;;;4.95;4.28;;;;;;;-146.19;100.00;58918.88;4968164;28;20619;-47
2022/01/22 00:31:39;;;;;;;6.40;4.60;;;;;;;-146.19;100.00;58918.88;4971508;28;20070;-51
2022/01/22 00:34:08;;;;;;;5.57;4.77;;;;;;;-146.19;100.00;58918.88;4964495;28;20062;-49
2022/01/22 00:36:38;;;;;;;4.88;4.28;;;;;;;-146.19;100.00;58918.88;4967501;28;20070;-52
2022/01/22 00:39:07;;;;;;;4.72;4.35;;;;;;;-146.19;100.00;58918.88;4972197;28;20525;-52
2022/01/22 00:41:37;;;;;;;5.85;4.68;;;;;;;-146.19;100.00;58918.88;4966627;28;20089;-47
2022/01/22 00:44:06;;;;;;;5.85;4.43;;;;;;;-146.19;100.00;58918.88;4968424;28;20090;-53
2022/01/22 00:46:35;;;;;;;4.93;4.53;;;;;;;-146.19;100.00;58918.88;4944512;28;20063;-51
2022/01/22 00:49:03;;;;;;;4.60;4.20;;;;;;;-146.19;100.00;58918.88;4958246;28;20070;-53
2022/01/22 00:51:32;;;;;;;5.82;4.72;;;;;;;-146.19;100.00;58918.88;4974385;28;20070;-44
2022/01/22 00:54:01;;;;;;;4.82;4.43;;;;;;;-146.19;100.00;58918.88;4966888;28;20070;-50
2022/01/22 00:56:29;;;;;;;6.35;4.32;;;;;;;-146.19;100.00;58918.88;4965275;28;20089;-48
2022/01/22 00:58:59;;;;;;;5.35;4.70;;;;;;;-146.19;100.00;58918.88;4975173;28;20082;-50
2022/01/22 01:01:28;;;;;;;4.43;4.13;;;;;;;-146.19;100.00;58918.88;4968418;28;20074;-45
2022/01/22 01:04:01;;;;;;;4.70;4.30;;;;;;;-146.19;100.00;58918.88;4968397;28;20073;-47
2022/01/22 01:06:30;;;;;;;5.07;4.57;;;;;;;-146.19;100.00;58918.88;4971522;28;20694;-47
2022/01/22 01:09:00;;;;;;;4.65;4.07;;;;;;;-146.19;100.00;58918.88;4966865;28;20571;-48
2022/01/22 01:11:31;;;;;;;5.57;4.63;;;;;;;-146.19;100.00;58918.88;4970670;28;20090;-51
2022/01/22 01:14:03;;;;;;;4.45;4.05;;;;;;;-146.19;100.00;58918.88;4969880;28;20082;-51
2022/01/22 01:16:56;;;;;;;11.18;4.55;;;;;;;-146.19;100.00;58918.88;4968021;28;20067;-53
2022/01/22 01:33:22;;;;;;;4.50;4.10;;;;;;;-146.19;100.00;58918.88;4958881;28;20070;-47
2022/01/22 01:35:50;;;;;;;13.25;5.20;;;;;;;-146.19;100.00;58918.88;4962041;28;20054;-48
2022/01/22 01:38:21;;;;;;;4.93;4.45;;;;;;;-146.19;100.00;58918.88;4955025;28;20175;-49
2022/01/22 01:40:59;;;;;;;5.35;4.85;;;;;;;-146.19;100.00;58918.88;4963430;28;20748;-51
2022/01/22 01:43:33;;;;;;;4.95;4.40;;;;;;;-146.19;100.00;58918.88;4964270;28;20062;-48
2022/01/22 01:46:03;;;;;;;4.70;4.32;;;;;;;-146.19;100.00;58918.88;4962670;28;20070;-47
2022/01/22 01:48:36;;;;;;;5.07;4.68;;;;;;;-146.19;100.00;58918.88;4963731;28;20066;-50
2022/01/22 01:51:05;;;;;;;4.95;4.50;;;;;;;-146.19;100.00;58918.88;4960440;28;20066;-45
2022/01/22 01:53:48;;;;;;;6.40;4.78;;;;;;;-146.19;100.00;58918.88;4959653;28;20082;-46
2022/01/22 01:59:14;;;;;;;5.13;4.25;;;;;;;-146.19;100.00;58918.88;4908965;28;20094;-49
2022/01/22 02:01:45;;;;;;;5.10;4.65;;;;;;;-146.19;100.00;58918.88;4962405;28;20070;-49
2022/01/22 02:04:14;;;;;;;5.18;4.68;;;;;;;-146.19;100.00;58918.88;4963454;28;20655;-47
2022/01/22 02:06:42;;;;;;;4.75;4.32;;;;;;;-146.19;100.00;58918.88;4957141;28;20058;-44
2022/01/22 02:09:11;;;;;;;4.50;4.15;;;;;;;-146.19;100.00;58918.88;4964794;28;20070;-43
2022/01/22 02:11:40;;;;;;;5.25;4.85;;;;;;;-146.19;100.00;58918.88;4963815;28;20482;-46
2022/01/22 02:23:30;;;;;;;4.90;4.25;;;;;;;-146.19;100.00;58918.88;4961912;28;20082;-45
2022/01/22 02:25:19;;;;;;;6.85;5.28;;;;;;;-146.19;100.00;58918.88;4965955;28;20039;-48
2022/01/22 02:27:48;;;;;;;6.63;4.45;;;;;;;-146.19;100.00;58918.88;4965311;28;20067;-42
2022/01/22 02:30:21;;;;;;;5.57;4.78;;;;;;;-146.19;100.00;58918.88;4968848;28;20066;-48
2022/01/22 02:33:08;;;;;;;5.70;5.10;;;;;;;-146.19;100.00;58918.88;4960915;28;20512;-46
2022/01/22 02:35:48;;;;;;;5.72;4.63;;;;;;;-146.19;100.00;58918.88;4967707;28;20074;-47
2022/01/22 02:38:23;;;;;;;5.45;4.90;;;;;;;-146.19;100.00;58918.88;4965626;28;20089;-52
2022/01/22 02:40:51;;;;;;;5.15;4.72;;;;;;;-146.19;100.00;58918.88;4964530;28;20443;-49
2022/01/22 02:43:20;;;;;;;5.20;4.70;;;;;;;-146.19;100.00;58918.88;4965309;28;20458;-48
2022/01/22 02:45:50;;;;;;;5.65;5.13;;;;;;;-146.19;100.00;58918.88;4962412;28;20063;-49
2022/01/22 02:48:18;;;;;;;5.53;5.03;;;;;;;-146.19;100.00;58918.88;4961423;28;20457;-47
2022/01/22 02:50:47;;;;;;;4.85;4.47;;;;;;;-146.19;100.00;58918.88;4968968;28;20082;-45
2022/01/22 02:53:15;;;;;;;5.15;4.72;;;;;;;-146.19;100.00;58918.88;4969640;28;20090;-49
2022/01/22 02:55:46;;;;;;;5.55;5.05;;;;;;;-146.19;100.00;58918.88;4966529;28;20441;-47
2022/01/22 02:58:15;;;;;;;5.70;4.68;;;;;;;-146.19;100.00;58918.88;4970817;28;20291;-47
2022/01/22 03:00:43;;;;;;;5.65;5.15;;;;;;;-146.19;100.00;58918.88;4963873;28;20055;-46
2022/01/22 03:03:12;;;;;;;9.32;5.38;;;;;;;-146.19;100.00;58918.88;4960893;28;20455;-49
2022/01/22 03:05:41;;;;;;;5.63;5.07;;;;;;;-146.19;100.00;58918.88;4964844;28;20097;-48
2022/01/22 03:08:11;;;;;;;5.15;4.75;;;;;;;-146.19;100.00;58918.88;4971248;28;20078;-47
2022/01/22 03:10:43;;;;;;;6.30;4.87;;;;;;;-146.19;100.00;58918.88;4967457;28;20488;-50
2022/01/22 03:16:07;;;;;;;5.90;4.95;;;;;;;-146.19;100.00;58918.88;4963736;28;20043;-47
2022/01/22 03:18:46;;;;;;;6.53;5.07;;;;;;;-146.19;100.00;58918.88;4967183;28;20070;-51
2022/01/22 03:21:32;;;;;;;5.70;5.18;;;;;;;-146.19;100.00;58918.88;4962296;28;20085;-45
2022/01/22 03:29:37;;;;;;;5.43;4.82;;;;;;;-146.19;100.00;58918.88;4964278;28;20178;-48
2022/01/22 03:32:07;;;;;;;5.80;5.28;;;;;;;-146.19;100.00;58918.88;4961467;28;20086;-50
2022/01/22 03:34:42;;;;;;;4.93;4.50;;;;;;;-146.19;100.00;58918.88;4960691;28;20042;-45
2022/01/22 03:37:11;;;;;;;5.43;4.82;;;;;;;-146.19;100.00;58918.88;4956714;28;20075;-46
2022/01/22 03:39:39;;;;;;;8.40;4.95;;;;;;;-146.19;100.00;58918.88;4961150;28;20062;-50
2022/01/22 03:42:09;;;;;;;11.20;5.50;;;;;;;-146.19;100.00;58918.88;4958513;28;20063;-45
2022/01/22 03:44:39;;;;;;;5.28;4.78;;;;;;;-146.19;100.00;58918.88;4958370;28;20070;-49
2022/01/22 03:47:07;;;;;;;6.28;5.68;;;;;;;-146.19;100.00;58918.88;4965618;28;20518;-49
2022/01/22 03:49:36;;;;;;;6.32;5.75;;;;;;;-146.19;100.00;58918.88;4957286;28;20067;-50
2022/01/22 03:52:05;;;;;;;5.72;5.18;;;;;;;-146.19;100.00;58918.88;4965216;28;20066;-47
2022/01/22 03:54:34;;;;;;;7.30;5.07;;;;;;;-146.19;100.00;58918.88;4963088;28;20070;-49
2022/01/22 03:57:03;;;;;;;6.25;5.40;;;;;;;-146.19;100.00;58918.88;4962538;28;20058;-44
2022/01/22 03:59:31;;;;;;;5.22;4.68;;;;;;;-146.19;100.00;58918.88;4968984;28;20093;-45
2022/01/22 04:04:51;;;;;;;8.77;5.10;;;;;;;-146.19;100.00;58918.88;4971115;28;20101;-48
2022/01/22 04:10:04;;;;;;;5.80;5.20;;;;;;;-146.19;100.00;58918.88;4966200;28;20093;-45
2022/01/22 04:12:41;;;;;;;5.63;5.10;;;;;;;-146.19;100.00;58918.88;4964000;28;20286;-48
2022/01/22 04:15:12;;;;;;;7.05;5.35;;;;;;;-146.19;100.00;58918.88;4971503;28;20058;-50
2022/01/22 04:26:10;;;;;;;8.50;5.20;;;;;;;-146.19;100.00;58918.88;4969194;28;20252;-50
2022/01/22 04:28:39;;;;;;;6.28;5.68;;;;;;;-146.19;100.00;58918.88;4970035;28;20067;-45
2022/01/22 04:31:08;;;;;;;7.78;5.63;;;;;;;-146.19;100.00;58918.88;4965384;28;20058;-50
2022/01/22 04:33:39;;;;;;;6.38;5.78;;;;;;;-146.19;100.00;58918.88;4963515;28;20723;-50
2022/01/22 04:36:08;;;;;;;5.75;5.00;;;;;;;-146.19;100.00;58918.88;4970316;28;20054;-45
2022/01/22 04:38:36;;;;;;;8.25;5.25;;;;;;;-146.19;100.00;58918.88;4967773;28;20568;-47
2022/01/22 04:41:05;;;;;;;5.80;5.20;;;;;;;-146.19;100.00;58918.88;4971749;28;20074;-48
2022/01/22 04:43:36;;;;;;;9.70;4.68;;;;;;;-146.19;100.00;58918.88;4970033;28;20066;-49
2022/01/22 04:46:15;;;;;;;8.55;5.93;;;;;;;-146.19;100.00;58918.88;4973222;28;20190;-49
2022/01/22 04:49:05;;;;;;;5.70;4.95;;;;;;;-146.19;100.00;58918.88;4968239;28;20656;-47
2022/01/22 04:57:06;;;;;;;6.32;5.70;;;;;;;-146.19;100.00;58918.88;4967989;28;20521;-52
2022/01/22 04:59:35;;;;;;;8.82;6.50;;;;;;;-146.19;100.00;58918.88;4965986;28;20070;-53
2022/01/22 05:02:04;;;;;;;7.38;5.43;;;;;;;-146.19;100.00;58918.88;4969703;28;20097;-46
2022/01/22 05:04:33;;;;;;;6.75;5.85;;;;;;;-146.19;100.00;58918.88;4968537;28;20062;-47
2022/01/22 05:07:02;;;;;;;8.15;5.97;;;;;;;-146.19;100.00;58918.88;4971630;28;20533;-47
2022/01/22 05:09:31;;;;;;;8.02;6.10;;;;;;;-146.19;100.00;58918.88;4963471;28;20571;-50
2022/01/22 05:11:59;;;;;;;6.78;6.03;;;;;;;-146.19;100.00;58918.88;4961256;28;20521;-48
2022/01/22 05:14:28;;;;;;;6.50;5.90;;;;;;;-146.19;100.00;58918.88;4965647;28;20082;-49
2022/01/22 05:16:59;;;;;;;6.80;6.18;;;;;;;-146.19;100.00;58918.88;4965016;28;20071;-50
2022/01/22 05:19:33;;;;;;;8.80;6.45;;;;;;;-146.19;100.00;58918.88;4961033;28;20073;-48
2022/01/22 05:22:12;;;;;;;9.85;6.10;;;;;;;-146.19;100.00;58918.88;4965154;28;20078;-48
2022/01/22 05:24:45;;;;;;;7.20;6.05;;;;;;;-146.19;100.00;58918.88;4961951;28;20070;-51
2022/01/22 05:27:40;;;;;;;8.45;6.03;;;;;;;-146.19;100.00;58918.88;4965358;28;20323;-47
2022/01/22 05:30:25;;;;;;;5.97;5.22;;;;;;;-146.19;100.00;58918.88;4974516;28;20054;-48
2022/01/22 05:33:01;;;;;;;6.53;5.93;;;;;;;-146.19;100.00;58918.88;4960911;28;20462;-53
2022/01/22 05:38:25;;;;;;;7.78;6.97;;;;;;;-146.19;100.00;58918.88;4965967;28;20079;-50
2022/01/22 05:40:53;;;;;;;9.57;6.53;;;;;;;-146.19;100.00;58918.88;4966231;28;20517;-49
2022/01/22 05:43:22;;;;;;;7.13;6.45;;;;;;;-146.19;100.00;58918.88;4962278;28;20524;-50
2022/01/22 05:45:50;;;;;;;8.35;6.45;;;;;;;-146.19;100.00;58918.88;4958549;28;20062;-54
2022/01/22 05:48:19;;;;;;;12.73;6.72;;;;;;;-146.19;100.00;58918.88;4965173;28;20077;-49
2022/01/22 05:50:52;;;;;;;8.85;6.60;;;;;;;-146.19;100.00;58918.88;4961021;28;20109;-47
2022/01/22 05:53:36;;;;;;;8.88;6.85;;;;;;;-146.19;100.00;58918.88;4964766;28;20079;-49
2022/01/22 06:01:37;;;;;;;9.38;6.57;;;;;;;-146.19;100.00;58918.88;4962910;28;20536;-48
2022/01/22 06:04:06;;;;;;;6.93;6.10;;;;;;;-146.19;100.00;58918.88;4962816;28;20070;-48
2022/01/22 06:06:35;;;;;;;7.78;5.88;;;;;;;-146.19;100.00;58918.88;4966113;28;20073;-44
2022/01/22 06:09:08;;;;;;;9.05;6.57;;;;;;;-146.19;100.00;58918.88;4966329;28;20077;-51
2022/01/22 06:11:52;;;;;;;7.40;6.05;;;;;;;-146.19;100.00;58918.88;4967067;28;20082;-48
2022/01/22 06:14:21;;;;;;;8.27;6.68;;;;;;;-146.19;100.00;58918.88;4970215;28;20113;-46
2022/01/22 06:16:49;;;;;;;8.27;5.95;;;;;;;-146.19;100.00;58918.88;4975986;28;20673;-50
2022/01/22 06:19:18;;;;;;;8.45;6.97;;;;;;;-146.19;100.00;58918.88;4965265;28;20070;-47
2022/01/22 06:21:46;;;;;;;6.90;6.20;;;;;;;-146.19;100.00;58918.88;4966254;28;20141;-48
2022/01/22 06:24:15;;;;;;;6.95;6.25;;;;;;;-146.19;100.00;58918.88;4964522;28;20072;-50
2022/01/22 06:26:45;;;;;;;8.48;6.25;;;;;;;-146.19;100.00;58918.88;4963051;28;20078;-46
2022/01/22 06:29:13;;;;;;;6.68;5.82;;;;;;;-146.19;100.00;58918.88;4968792;28;20584;-50
2022/01/22 06:31:42;;;;;;;9.55;7.63;;;;;;;-146.19;100.00;58918.88;4967819;28;20081;-54
2022/01/22 06:34:11;;;;;;;11.57;8.13;;;;;;;-146.19;100.00;58918.88;4953483;28;20075;-46
2022/01/22 06:36:39;;;;;;;8.60;5.85;;;;;;;-146.19;100.00;58918.88;4954469;28;20067;-53
2022/01/22 06:39:13;;;;;;;7.47;5.78;;;;;;;-146.19;100.00;58918.88;4962341;28;20059;-51
2022/01/22 06:41:44;;;;;;;8.25;7.10;;;;;;;-146.19;100.00;58918.88;4968244;28;20082;-51
2022/01/22 06:44:17;;;;;;;7.57;6.50;;;;;;;-146.19;100.00;58918.88;4971879;28;20078;-51
2022/01/22 06:46:47;;;;;;;7.90;7.10;;;;;;;-146.19;100.00;58918.88;4965974;28;20093;-47
2022/01/22 06:49:16;;;;;;;8.02;6.75;;;;;;;-146.19;100.00;58918.88;4963210;28;20078;-50
2022/01/22 06:51:44;;;;;;;6.65;5.80;;;;;;;-146.19;100.00;58918.88;4967229;28;20470;-51
2022/01/22 06:54:14;;;;;;;10.25;7.47;;;;;;;-146.19;100.00;58918.88;4963691;28;20641;-53
2022/01/22 06:56:43;;;;;;;8.63;6.30;;;;;;;-146.19;100.00;58918.88;4962606;28;20086;-56
2022/01/22 06:59:12;;;;;;;11.05;7.80;;;;;;;-146.19;100.00;58918.88;4966119;28;20082;-48
2022/01/22 07:01:43;;;;;;;12.63;8.05;;;;;;;-146.19;100.00;58918.88;4970015;28;20069;-50
2022/01/22 07:04:13;;;;;;;;;;;;;;;-146.19;100.00;58918.88;4964955;28;20066;-47
2022/01/22 07:06:41;;;;;;;9.82;7.00;;;;;;;-146.19;100.00;58918.88;4966793;28;19969;-49
2022/01/22 07:09:09;;;;;;;9.35;6.90;;;;;;;-146.19;100.00;58918.88;4976001;28;20074;-51
2022/01/22 07:11:38;;;;;;;8.23;6.82;;;;;;;-146.19;100.00;58918.88;4966495;28;20081;-51
2022/01/22 07:14:07;;;;;;;8.30;6.78;;;;;;;-146.19;100.00;58918.88;4966468;28;20102;-47
2022/01/22 07:16:35;;;;;;;12.40;8.48;;;;;;;-146.19;100.00;58918.88;4957641;28;20081;-50
2022/01/22 07:19:05;;;;;;;8.45;7.13;;;;;;;-146.19;100.00;58918.88;4965870;28;20077;-51
2022/01/22 07:21:36;;;;;;;12.35;7.22;;;;;;;-146.19;100.00;58918.88;4962682;28;20085;-48
2022/01/22 07:26:50;;;;;;;8.85;7.40;;;;;;;-146.19;100.00;58918.88;4968937;28;19961;-49
2022/01/22 07:29:19;;;;;;;8.77;7.32;;;;;;;-146.19;100.00;58918.88;4978436;28;20097;-49
2022/01/22 07:31:47;;;;;;;9.13;7.15;;;;;;;-146.19;100.00;58918.88;4970834;28;20454;-55
2022/01/22 07:34:17;;;;;;;10.15;7.00;;;;;;;-146.19;100.00;58918.88;4972074;28;20081;-49
2022/01/22 07:36:46;;;;;;;7.32;6.40;;;;;;;-146.19;100.00;58918.88;4977577;28;20074;-49
2022/01/22 07:39:14;;;;;;;10.05;8.18;;;;;;;-146.19;100.00;58918.88;4974894;28;20073;-49
2022/01/22 07:41:43;;;;;;;8.55;7.28;;;;;;;-146.19;100.00;58918.88;4973899;28;20098;-50
2022/01/22 07:44:11;;;;;;;11.98;8.90;;;;;;;-146.19;100.00;58918.88;4979740;28;20082;-51
2022/01/22 07:46:40;;;;;;;11.68;8.15;;;;;;;-146.19;100.00;58918.88;4976901;28;20096;-53
2022/01/22 07:49:09;;;;;;;10.05;7.28;;;;;;;-146.19;100.00;58918.88;4970338;28;20443;-46
2022/01/22 07:51:38;;;;;;;9.90;8.00;;;;;;;-146.19;100.00;58918.88;4974056;28;20062;-48
2022/01/22 07:54:07;;;;;;;13.18;9.55;;;;;;;-146.19;100.00;58918.88;4981610;28;20066;-49
2022/01/22 07:56:35;;;;;;;10.20;8.50;;;;;;;-146.19;100.00;58918.88;4968751;28;20692;-49
2022/01/22 07:59:04;;;;;;;9.10;7.43;;;;;;;-146.19;100.00;58918.88;4969362;28;20082;-52
2022/01/22 08:01:32;;;;;;;8.77;7.55;;;;;;;-146.19;100.00;58918.88;4972366;28;20067;-47
2022/01/22 08:04:01;;;;;;;10.63;6.97;;;;;;;-146.19;100.00;58918.88;4972487;28;20089;-50
2022/01/22 08:06:30;;;;;;;8.45;7.55;;;;;;;-146.19;100.00;58918.88;4970243;28;20057;-52
2022/01/22 08:09:00;;;;;;;6.13;5.50;;;;;;;-146.19;100.00;58918.88;4971574;28;20075;-51
2022/01/22 08:11:28;;;;;;;10.32;7.60;;;;;;;-146.19;100.00;58918.88;4987550;28;20063;-48
2022/01/22 08:13:57;;;;;;;8.63;7.72;;;;;;;-146.19;100.00;58918.88;4972934;28;20078;-48
2022/01/22 08:16:25;;;;;;;9.73;6.68;;;;;;;-146.19;100.00;58918.88;4972987;28;20066;-50
2022/01/22 08:18:54;;;;;;;10.25;6.90;;;;;;;-146.19;100.00;58918.88;4970282;28;20062;-50
2022/01/22 08:21:24;;;;;;;8.00;6.85;;;;;;;-146.19;100.00;58918.88;4972020;28;20106;-45
2022/01/22 08:23:53;;;;;;;9.23;7.30;;;;;;;-146.19;100.00;58918.88;4967940;28;20501;-52
2022/01/22 08:26:27;;;;;;;8.93;7.50;;;;;;;-146.19;100.00;58918.88;4965583;28;20079;-50
2022/01/22 08:28:58;;;;;;;9.20;8.10;;;;;;;-146.19;100.00;58918.88;4975618;28;20631;-46
2022/01/22 08:31:39;;;;;;;;;;;;;;;-146.19;100.00;58918.88;4970823;28;20070;-51
2022/01/22 08:36:55;;;;;;;9.68;6.90;;;;;;;-146.19;100.00;58918.88;4966784;28;20058;-49
2022/01/22 08:39:24;;;;;;;9.60;7.82;;;;;;;-146.19;100.00;58918.88;4968714;28;20465;-54
2022/01/22 08:41:56;;;;;;;15.55;9.20;;;;;;;-146.19;100.00;58918.88;4966722;28;20073;-48
2022/01/22 08:44:25;;;;;;;9.88;8.07;;;;;;;-146.19;100.00;58918.88;4965483;28;20585;-48
2022/01/22 08:46:54;;;;;;;10.48;6.93;;;;;;;-146.19;100.00;58918.88;4973902;28;20452;-48
2022/01/22 08:49:22;;;;;;;10.82;8.70;;;;;;;-146.19;100.00;58918.88;4967055;28;20085;-47
2022/01/22 08:51:51;;;;;;;11.18;8.20;;;;;;;-146.19;100.00;58918.88;4966300;28;20075;-50
2022/01/22 08:54:19;;;;;;;10.02;7.05;;;;;;;-146.19;100.00;58918.88;4964745;28;20066;-47
2022/01/22 08:56:48;;;;;;;10.70;7.78;;;;;;;-146.19;100.00;58918.88;4972328;28;20066;-48
2022/01/22 08:59:18;;;;;;;10.05;7.88;;;;;;;-146.19;100.00;58918.88;4966008;28;20505;-49
2022/01/22 09:01:48;;;;;;;10.77;8.77;;;;;;;-146.19;100.00;58918.88;4963002;28;20100;-50
2022/01/22 09:04:17;;;;;;;11.93;7.32;;;;;;;-146.19;100.00;58918.88;4975315;28;20520;-48
2022/01/22 09:06:46;;;;;;;8.65;7.18;;;;;;;-146.19;100.00;58918.88;4965113;28;20566;-47
2022/01/22 09:09:15;;;;;;;7.75;6.90;;;;;;;-146.19;100.00;58918.88;4965035;28;20062;-47
2022/01/22 09:11:45;;;;;;;8.52;6.90;;;;;;;-146.19;100.00;58918.88;4964578;28;20490;-46
2022/01/22 09:14:17;;;;;;;8.68;7.45;;;;;;;-146.19;100.00;58918.88;4970125;28;20078;-52
2022/01/22 09:16:47;;;;;;;10.13;7.93;;;;;;;-146.19;100.00;58918.88;4964087;28;20548;-50
2022/01/22 09:19:16;;;;;;;10.65;7.95;;;;;;;-146.19;100.00;58918.88;4960760;28;20067;-49
2022/01/22 09:21:47;;;;;;;12.13;6.85;;;;;;;-146.19;100.00;58918.88;4965182;28;20075;-51
2022/01/22 09:24:17;;;;;;;11.45;7.55;;;;;;;-146.19;100.00;58918.88;4966222;28;20070;-46
2022/01/22 09:26:46;;;;;;;6.70;5.85;;;;;;;-146.19;100.00;58918.88;4960975;28;20047;-48
2022/01/22 09:29:15;;;;;;;8.55;6.85;;;;;;;-146.19;100.00;58918.88;4950420;29;20082;-47
2022/01/22 09:31:46;;;;;;;9.52;7.88;;;;;;;-146.19;100.00;58918.88;4962486;28;20462;-48
2022/01/22 09:34:15;;;;;;;8.35;7.45;;;;;;;-146.19;100.00;58918.88;4964884;28;20109;-52
2022/01/22 09:36:44;;;;;;;11.68;7.90;;;;;;;-146.19;100.00;58918.88;4965994;28;20520;-45
2022/01/22 09:39:12;;;;;;;9.55;7.15;;;;;;;-146.19;100.00;58918.88;4961997;28;20514;-48
2022/01/22 09:43:10;;;;;;;7.95;6.43;;;;;;;;;;5018670;27;20622;-50
2022/01/22 09:45:38;;;;;;;8.68;7.35;;;;;;;;;;4997471;28;20065;-50
2022/01/22 09:48:06;;;;;;;11.35;8.18;;;;;;;;;;5003757;28;20481;-52
2022/01/22 09:50:35;;;;;;;10.30;7.45;;;;;;;;;;5018897;28;20463;-50
2022/01/22 09:53:03;;;;;;;8.48;6.63;;;;;;;;;;5023659;28;20103;-45
2022/01/22 09:55:31;;;;;;;11.18;8.30;;;;;;;;;;5017642;28;20088;-47
2022/01/22 09:57:59;;;;;;;10.18;8.30;;;;;;;;;;5020266;28;20069;-44
2022/01/22 10:00:29;;;;;;;9.57;7.25;;;;;;;;;;5019913;28;20069;-44
2022/01/22 10:02:58;;;;;;;9.50;7.55;;;;;;;;;;5017704;28;20532;-47
2022/01/22 10:05:31;;;;;;;9.82;7.25;;;;;;;;;;5022556;28;20084;-45
2022/01/22 10:08:14;;;;;;;9.63;6.38;;;;;;;;;;5023648;28;21715;-48
2022/01/22 10:10:42;;;;;;;14.75;7.78;;;;;;;;;;5012830;28;20073;-44
2022/01/22 10:13:10;;;;;;;9.75;7.93;;;;;;;;;;5021624;28;20471;-46
2022/01/22 10:15:40;;;;;;;10.13;7.78;;;;;;;;;;5019274;28;20072;-44
2022/01/22 10:18:09;;;;;;;8.45;6.82;;;;;;;;;;5022481;28;20077;-47
2022/01/22 10:20:38;;;;;;;8.10;7.00;;;;;;;;;;5019830;28;20088;-45
2022/01/22 10:23:09;;;;;;;11.90;8.25;;;;;;;;;;5020221;28;20062;-43
2022/01/22 10:25:41;;;;;;;10.68;7.35;;;;;;;;;;5019052;28;20662;-50
2022/01/22 10:28:12;;;;;;;9.70;7.95;;;;;;;;;;5022514;28;20081;-48
2022/01/22 10:30:44;;;;;;;9.75;7.70;;;;;;;;;;5019174;28;20070;-46
2022/01/22 10:33:27;;;;;;;9.60;8.10;;;;;;;;;;5020168;28;20057;-47
2022/01/22 10:36:08;;;;;;;11.10;7.45;;;;;;;;;;5024668;28;20068;-51
2022/01/22 10:38:43;;;;;;;13.95;8.70;;;;;;;;;;5021759;28;20088;-48
2022/01/22 10:41:11;;;;;;;11.60;8.77;;;;;;;;;;5019072;28;20077;-48
2022/01/22 10:43:43;;;;;;;9.95;8.23;;;;;;;;;;5019257;28;20076;-51
2022/01/22 10:46:19;;;;;;;11.05;7.90;;;;;;;;;;5021404;28;20123;-46
2022/01/22 10:48:55;;;;;;;14.68;9.10;;;;;;;;;;5021269;28;20081;-48
2022/01/22 10:51:23;;;;;;;11.50;8.43;;;;;;;;;;5020609;28;20073;-45
2022/01/22 10:53:52;;;;;;;9.25;7.78;;;;;;;;;;5014628;28;20066;-48
2022/01/22 10:56:22;;;;;;;12.35;8.80;;;;;;;;;;5008377;28;20085;-46
2022/01/22 10:58:54;;;;;;;10.18;8.23;;;;;;;;;;4985753;28;20070;-51
2022/01/22 11:01:25;;;;;;;10.57;6.88;;;;;;;;;;4988321;28;20154;-51
2022/01/22 11:04:04;;;;;;;9.32;7.75;;;;;;;;;;4987878;28;20568;-51
2022/01/22 11:08:36;;;;;;;10.75;7.45;;;;;;;3.14;100.00;97652.69;5061050;27;20624;-53
2022/01/22 11:11:05;;;;;;;7.45;6.35;;;;;;;2.95;100.00;97643.06;5008532;28;20093;-47
2022/01/22 11:13:34;;;;;;;9.25;7.40;;;;;;;2.93;100.00;97657.09;5002578;28;20066;-48
2022/01/22 11:16:02;;;;;;;9.60;8.07;;;;;;;3.29;100.00;97649.38;5003919;28;20437;-49
2022/01/22 11:18:31;;;;;;;12.48;9.52;;;;;;;3.20;100.00;97655.84;5003832;28;20065;-49
2022/01/22 11:21:01;;;;;;;10.45;8.18;;;;;;;2.93;100.00;97668.34;5008687;28;20077;-49
2022/01/22 11:23:30;;;;;;;9.38;7.55;;;;;;;3.03;100.00;97661.81;5000919;28;20081;-51
2022/01/22 11:26:00;;;;;;;11.00;7.63;;;;;;;2.90;100.00;97655.47;5022375;28;20077;-51
2022/01/22 11:28:45;;;;;;;10.52;7.18;;;;;;;3.04;100.00;97658.28;5023510;28;20050;-51
2022/01/22 11:31:16;;;;;;;8.98;7.45;;;;;;;2.97;100.00;97650.81;5026560;28;20060;-47
2022/01/22 11:33:47;;;;;;;10.00;7.35;;;;;;;2.88;100.00;97649.47;5011238;28;20092;-49
2022/01/22 11:36:19;;;;;;;9.45;8.55;;;;;;;2.88;100.00;97664.25;4999827;28;20073;-54
2022/01/22 11:38:54;;;;;;;10.85;8.25;;;;;;;3.17;100.00;97662.97;5003977;28;20487;-49
2022/01/22 11:41:24;;;;;;;9.38;7.50;;;;;;;2.92;100.00;97652.78;5030218;28;20660;-51
2022/01/22 11:44:10;;;;;;;7.95;7.00;;;;;;;2.91;100.00;97659.75;5023063;28;20587;-52
2022/01/22 11:46:41;;;;;;;8.70;7.53;;;;;;;2.95;100.00;97648.28;5023456;28;20709;-53
2022/01/22 11:49:31;;;;;;;13.02;9.90;;;;;;;3.30;100.00;97661.47;5026275;28;20066;-50
2022/01/22 11:52:18;;;;;;;8.73;7.65;;;;;;;2.76;100.00;97661.28;5012363;28;20582;-48
2022/01/22 11:54:51;;;;;;;10.68;8.68;;;;;;;3.18;100.00;97662.03;4999421;28;20128;-51
2022/01/22 11:57:21;;;;;;;10.98;8.07;;;;;;;3.05;100.00;97651.31;4999787;28;20054;-52
2022/01/22 12:00:23;;;;;;;11.45;8.85;;;;;;;3.24;100.00;97659.16;5002610;28;20116;-50
2022/01/22 12:03:23;;;;;;;12.43;9.15;;;;;;;3.00;100.00;97654.16;5001050;28;20070;-45
2022/01/22 12:06:11;;;;;;;8.68;6.82;;;;;;;3.09;100.00;97658.06;5005863;28;20440;-51
2022/01/22 12:09:10;;;;;;;9.02;8.05;;;;;;;2.96;100.00;97654.31;5002095;28;20086;-50
2022/01/22 12:14:56;;;;;;;10.25;8.38;;;;;;;3.30;100.00;97648.44;5003219;28;20136;-49
2022/01/22 12:18:08;;;;;;;14.52;9.10;;;;;;;3.18;100.00;97654.22;5002862;28;20082;-50
2022/01/22 12:23:57;;;;;;;9.30;8.02;;;;;;;3.25;100.00;97650.41;4991352;28;20078;-47
2022/01/22 12:26:53;;;;;;;8.55;6.65;;;;;;;3.19;100.00;97648.09;4993682;28;20085;-49
2022/01/22 12:29:34;;;;;;;11.73;8.68;;;;;;;3.26;100.00;97650.34;4986669;28;20466;-50
2022/01/22 12:32:33;;;;;;;12.35;8.88;;;;;;;3.24;100.00;97656.56;4986761;28;21706;-45
2022/01/22 12:35:15;;;;;;;12.45;7.65;;;;;;;3.20;100.00;97649.78;4987770;28;21525;-52
2022/01/22 12:37:53;;;;;;;12.63;8.68;;;;;;;3.46;100.00;97646.81;5006891;28;20078;-46
2022/01/22 12:40:31;;;;;;;10.73;7.85;;;;;;;3.32;100.00;97654.44;4993045;28;20081;-48
2022/01/22 12:43:14;;;;;;;14.25;8.88;;;;;;;3.27;100.00;97652.06;4985154;28;20066;-45
2022/01/22 12:45:45;;;;;;;9.90;8.73;;;;;;;3.22;100.00;97656.63;4983259;28;20081;-48
2022/01/22 12:48:15;;;;;;;9.00;7.57;;;;;;;3.21;100.00;97648.88;4991011;28;20070;-47
2022/01/22 12:50:44;;;;;;;12.18;9.00;;;;;;;3.48;100.00;97652.81;4989080;28;20583;-48
2022/01/22 12:53:17;;;;;;;10.02;7.70;;;;;;;3.22;100.00;97640.13;5007607;28;20081;-50
2022/01/22 12:56:03;;;;;;;12.27;10.15;;;;;;;3.49;100.00;97645.84;5003870;28;20068;-46
2022/01/22 12:58:33;;;;;;;10.73;8.00;;;;;;;3.33;100.00;97643.09;4989626;28;20074;-46
2022/01/22 13:01:13;;;;;;;9.70;8.02;;;;;;;3.25;100.00;97629.56;4985794;28;20116;-48
2022/01/22 13:03:44;;;;;;;;;;;;;;;3.41;100.00;97643.59;4985868;28;20058;-45
2022/01/22 13:06:13;;;;;;;10.50;8.52;;;;;;;3.19;100.00;97637.66;4984541;28;19953;-45
2022/01/22 13:08:41;;;;;;;12.85;7.90;;;;;;;2.99;100.00;97631.59;4990762;28;20074;-51
2022/01/22 13:11:14;;;;;;;15.98;9.60;;;;;;;3.23;100.00;97644.41;4991074;28;20096;-47
2022/01/22 13:13:42;;;;;;;8.38;6.03;;;;;;;2.84;100.00;97638.34;4987927;28;20181;-44